sensor_id;sensor_type;location;lat;lon;timestamp;temperature;humidity
27848;DHT22;15212;48.830;8.730;2023-04-06T00:00:27;1.30;99.90
27848;DHT22;15212;48.830;8.730;2023-04-06T00:02:52;1.20;99.90
27848;DHT22;15212;48.830;8.730;2023-04-06T00:05:21;1.20;99.90
27848;DHT22;15212;48.830;8.730;2023-04-06T00:07:50;1.20;99.90
27848;DHT22;15212;48.830;8.730;2023-04-06T00:10:19;1.10;99.90
27848;DHT22;15212;48.830;8.730;2023-04-06T00:12:47;1.10;99.90
27848;DHT22;15212;48.830;8.730;2023-04-06T00:15:16;1.20;99.90
27848;DHT22;15212;48.830;8.730;2023-04-06T00:17:44;1.20;99.90
27848;DHT22;15212;48.830;8.730;2023-04-06T00:20:12;1.40;99.90
27848;DHT22;15212;48.830;8.730;2023-04-06T00:22:41;1.50;99.90
27848;DHT22;15212;48.830;8.730;2023-04-06T00:25:11;1.60;99.90
27848;DHT22;15212;48.830;8.730;2023-04-06T00:27:41;1.60;99.90
27848;DHT22;15212;48.830;8.730;2023-04-06T00:30:10;1.70;99.90
27848;DHT22;15212;48.830;8.730;2023-04-06T00:32:38;1.80;99.90
27848;DHT22;15212;48.830;8.730;2023-04-06T00:35:07;1.80;99.90
27848;DHT22;15212;48.830;8.730;2023-04-06T00:37:36;1.80;99.90
27848;DHT22;15212;48.830;8.730;2023-04-06T00:40:05;1.80;99.90
27848;DHT22;15212;48.830;8.730;2023-04-06T00:42:34;1.80;99.90
27848;DHT22;15212;48.830;8.730;2023-04-06T00:45:02;1.70;99.90
27848;DHT22;15212;48.830;8.730;2023-04-06T00:47:31;1.50;99.90
27848;DHT22;15212;48.830;8.730;2023-04-06T00:50:00;1.40;99.90
27848;DHT22;15212;48.830;8.730;2023-04-06T00:52:28;1.30;99.90
27848;DHT22;15212;48.830;8.730;2023-04-06T00:54:57;1.30;99.90
27848;DHT22;15212;48.830;8.730;2023-04-06T00:57:25;1.30;99.90
27848;DHT22;15212;48.830;8.730;2023-04-06T00:59:53;1.30;99.90
27848;DHT22;15212;48.830;8.730;2023-04-06T01:02:23;1.30;99.90
27848;DHT22;15212;48.830;8.730;2023-04-06T01:04:53;1.30;99.90
27848;DHT22;15212;48.830;8.730;2023-04-06T01:07:21;1.30;99.90
27848;DHT22;15212;48.830;8.730;2023-04-06T01:09:55;1.20;99.90
27848;DHT22;15212;48.830;8.730;2023-04-06T01:12:24;1.20;99.90
27848;DHT22;15212;48.830;8.730;2023-04-06T01:14:52;1.30;99.90
27848;DHT22;15212;48.830;8.730;2023-04-06T01:17:21;1.40;99.90
27848;DHT22;15212;48.830;8.730;2023-04-06T01:19:49;1.50;99.90
27848;DHT22;15212;48.830;8.730;2023-04-06T01:22:19;1.50;99.90
27848;DHT22;15212;48.830;8.730;2023-04-06T01:24:48;1.60;99.90
27848;DHT22;15212;48.830;8.730;2023-04-06T01:27:16;1.60;99.90
27848;DHT22;15212;48.830;8.730;2023-04-06T01:29:44;1.70;99.90
27848;DHT22;15212;48.830;8.730;2023-04-06T01:32:13;1.70;99.90
27848;DHT22;15212;48.830;8.730;2023-04-06T01:34:41;1.60;99.90
27848;DHT22;15212;48.830;8.730;2023-04-06T01:37:09;1.50;99.90
27848;DHT22;15212;48.830;8.730;2023-04-06T01:39:38;1.50;99.90
27848;DHT22;15212;48.830;8.730;2023-04-06T01:42:06;1.50;99.90
27848;DHT22;15212;48.830;8.730;2023-04-06T01:44:35;1.50;99.90
27848;DHT22;15212;48.830;8.730;2023-04-06T01:47:03;1.50;99.90
27848;DHT22;15212;48.830;8.730;2023-04-06T01:49:32;1.40;99.90
27848;DHT22;15212;48.830;8.730;2023-04-06T01:52:00;1.30;99.90
27848;DHT22;15212;48.830;8.730;2023-04-06T01:54:28;1.30;99.90
27848;DHT22;15212;48.830;8.730;2023-04-06T01:56:57;1.20;99.90
27848;DHT22;15212;48.830;8.730;2023-04-06T01:59:25;1.20;99.90
27848;DHT22;15212;48.830;8.730;2023-04-06T02:01:54;1.20;99.90
27848;DHT22;15212;48.830;8.730;2023-04-06T02:04:22;1.30;99.90
27848;DHT22;15212;48.830;8.730;2023-04-06T02:06:50;1.30;99.90
27848;DHT22;15212;48.830;8.730;2023-04-06T02:09:19;1.30;99.90
27848;DHT22;15212;48.830;8.730;2023-04-06T02:11:47;1.30;99.90
27848;DHT22;15212;48.830;8.730;2023-04-06T02:14:16;1.30;99.90
27848;DHT22;15212;48.830;8.730;2023-04-06T02:16:44;1.20;99.90
27848;DHT22;15212;48.830;8.730;2023-04-06T02:19:12;1.20;99.90
27848;DHT22;15212;48.830;8.730;2023-04-06T02:21:41;1.20;99.90
27848;DHT22;15212;48.830;8.730;2023-04-06T02:24:09;1.20;99.90
27848;DHT22;15212;48.830;8.730;2023-04-06T02:26:37;1.20;99.90
27848;DHT22;15212;48.830;8.730;2023-04-06T02:29:06;1.30;99.90
27848;DHT22;15212;48.830;8.730;2023-04-06T02:31:34;1.30;99.90
27848;DHT22;15212;48.830;8.730;2023-04-06T02:34:02;1.40;99.90
27848;DHT22;15212;48.830;8.730;2023-04-06T02:36:31;1.50;99.90
27848;DHT22;15212;48.830;8.730;2023-04-06T02:38:59;1.60;99.90
27848;DHT22;15212;48.830;8.730;2023-04-06T02:41:28;1.60;99.90
27848;DHT22;15212;48.830;8.730;2023-04-06T02:43:57;1.50;99.90
27848;DHT22;15212;48.830;8.730;2023-04-06T02:46:25;1.40;99.90
27848;DHT22;15212;48.830;8.730;2023-04-06T02:48:53;1.30;99.90
27848;DHT22;15212;48.830;8.730;2023-04-06T02:51:22;1.20;99.90
27848;DHT22;15212;48.830;8.730;2023-04-06T02:53:52;1.20;99.90
27848;DHT22;15212;48.830;8.730;2023-04-06T02:56:20;1.20;99.90
27848;DHT22;15212;48.830;8.730;2023-04-06T02:58:49;1.10;99.90
27848;DHT22;15212;48.830;8.730;2023-04-06T03:01:17;1.10;99.90
27848;DHT22;15212;48.830;8.730;2023-04-06T03:03:45;1.10;99.90
27848;DHT22;15212;48.830;8.730;2023-04-06T03:06:14;1.10;99.90
27848;DHT22;15212;48.830;8.730;2023-04-06T03:08:42;1.20;99.90
27848;DHT22;15212;48.830;8.730;2023-04-06T03:11:11;1.30;99.90
27848;DHT22;15212;48.830;8.730;2023-04-06T03:13:39;1.40;99.90
27848;DHT22;15212;48.830;8.730;2023-04-06T03:16:07;1.50;99.90
27848;DHT22;15212;48.830;8.730;2023-04-06T03:18:37;1.50;99.90
27848;DHT22;15212;48.830;8.730;2023-04-06T03:21:05;1.50;99.90
27848;DHT22;15212;48.830;8.730;2023-04-06T03:23:34;1.50;99.90
27848;DHT22;15212;48.830;8.730;2023-04-06T03:26:03;1.50;99.90
27848;DHT22;15212;48.830;8.730;2023-04-06T03:28:31;1.60;99.90
27848;DHT22;15212;48.830;8.730;2023-04-06T03:30:59;1.60;99.90
27848;DHT22;15212;48.830;8.730;2023-04-06T03:33:28;1.60;99.90
27848;DHT22;15212;48.830;8.730;2023-04-06T03:35:56;1.70;99.90
27848;DHT22;15212;48.830;8.730;2023-04-06T03:38:25;1.80;99.90
27848;DHT22;15212;48.830;8.730;2023-04-06T03:40:53;1.80;99.90
27848;DHT22;15212;48.830;8.730;2023-04-06T03:43:22;1.80;99.90
27848;DHT22;15212;48.830;8.730;2023-04-06T03:45:50;1.90;99.90
27848;DHT22;15212;48.830;8.730;2023-04-06T03:48:18;1.90;99.90
27848;DHT22;15212;48.830;8.730;2023-04-06T03:50:47;2.00;99.90
27848;DHT22;15212;48.830;8.730;2023-04-06T03:53:15;2.00;99.90
27848;DHT22;15212;48.830;8.730;2023-04-06T03:55:44;2.00;99.90
27848;DHT22;15212;48.830;8.730;2023-04-06T03:58:12;2.00;99.90
27848;DHT22;15212;48.830;8.730;2023-04-06T04:00:41;2.00;99.90
27848;DHT22;15212;48.830;8.730;2023-04-06T04:03:09;2.00;99.90
27848;DHT22;15212;48.830;8.730;2023-04-06T04:05:37;2.00;99.90
27848;DHT22;15212;48.830;8.730;2023-04-06T04:08:06;2.00;99.90
27848;DHT22;15212;48.830;8.730;2023-04-06T04:10:34;2.00;99.90
27848;DHT22;15212;48.830;8.730;2023-04-06T04:13:03;2.00;99.90
27848;DHT22;15212;48.830;8.730;2023-04-06T04:15:31;2.00;99.90
27848;DHT22;15212;48.830;8.730;2023-04-06T04:17:59;2.00;99.90
27848;DHT22;15212;48.830;8.730;2023-04-06T04:20:28;2.00;99.90
27848;DHT22;15212;48.830;8.730;2023-04-06T04:22:56;2.00;99.90
27848;DHT22;15212;48.830;8.730;2023-04-06T04:25:24;2.10;99.90
27848;DHT22;15212;48.830;8.730;2023-04-06T04:27:53;2.10;99.90
27848;DHT22;15212;48.830;8.730;2023-04-06T04:30:21;2.10;99.90
27848;DHT22;15212;48.830;8.730;2023-04-06T04:32:49;2.00;99.90
27848;DHT22;15212;48.830;8.730;2023-04-06T04:35:18;2.00;99.90
27848;DHT22;15212;48.830;8.730;2023-04-06T04:37:46;2.00;99.90
27848;DHT22;15212;48.830;8.730;2023-04-06T04:40:15;2.00;99.90
27848;DHT22;15212;48.830;8.730;2023-04-06T04:42:43;1.90;99.90
27848;DHT22;15212;48.830;8.730;2023-04-06T04:45:12;1.80;99.90
27848;DHT22;15212;48.830;8.730;2023-04-06T04:47:41;1.80;99.90
27848;DHT22;15212;48.830;8.730;2023-04-06T04:50:10;1.70;99.90
27848;DHT22;15212;48.830;8.730;2023-04-06T04:52:38;1.60;99.90
27848;DHT22;15212;48.830;8.730;2023-04-06T04:55:07;1.50;99.90
27848;DHT22;15212;48.830;8.730;2023-04-06T04:57:35;1.40;99.90
27848;DHT22;15212;48.830;8.730;2023-04-06T05:00:04;1.30;99.90
27848;DHT22;15212;48.830;8.730;2023-04-06T05:02:33;1.20;99.90
27848;DHT22;15212;48.830;8.730;2023-04-06T05:05:01;1.10;99.90
27848;DHT22;15212;48.830;8.730;2023-04-06T05:07:30;1.10;99.90
27848;DHT22;15212;48.830;8.730;2023-04-06T05:09:58;1.00;99.90
27848;DHT22;15212;48.830;8.730;2023-04-06T05:12:27;1.00;99.90
27848;DHT22;15212;48.830;8.730;2023-04-06T05:14:55;1.00;99.90
27848;DHT22;15212;48.830;8.730;2023-04-06T05:17:24;1.10;99.90
27848;DHT22;15212;48.830;8.730;2023-04-06T05:19:52;1.30;99.90
27848;DHT22;15212;48.830;8.730;2023-04-06T05:22:21;1.40;99.90
27848;DHT22;15212;48.830;8.730;2023-04-06T05:24:49;1.60;99.90
27848;DHT22;15212;48.830;8.730;2023-04-06T05:27:17;1.80;99.90
27848;DHT22;15212;48.830;8.730;2023-04-06T05:29:46;2.20;99.90
27848;DHT22;15212;48.830;8.730;2023-04-06T05:32:14;2.50;99.90
27848;DHT22;15212;48.830;8.730;2023-04-06T05:34:42;2.80;99.90
27848;DHT22;15212;48.830;8.730;2023-04-06T05:37:11;2.90;99.90
27848;DHT22;15212;48.830;8.730;2023-04-06T05:39:39;3.10;99.90
27848;DHT22;15212;48.830;8.730;2023-04-06T05:42:08;3.20;99.90
27848;DHT22;15212;48.830;8.730;2023-04-06T05:44:37;3.40;99.90
27848;DHT22;15212;48.830;8.730;2023-04-06T05:47:06;3.50;99.90
27848;DHT22;15212;48.830;8.730;2023-04-06T05:49:34;3.70;99.90
27848;DHT22;15212;48.830;8.730;2023-04-06T05:52:03;3.80;99.90
27848;DHT22;15212;48.830;8.730;2023-04-06T05:54:31;3.90;99.90
27848;DHT22;15212;48.830;8.730;2023-04-06T05:57:02;4.00;99.90
27848;DHT22;15212;48.830;8.730;2023-04-06T05:59:31;4.20;99.90
27848;DHT22;15212;48.830;8.730;2023-04-06T06:01:59;4.40;99.90
27848;DHT22;15212;48.830;8.730;2023-04-06T06:04:28;4.70;99.90
27848;DHT22;15212;48.830;8.730;2023-04-06T06:06:57;5.00;99.90
27848;DHT22;15212;48.830;8.730;2023-04-06T06:09:26;5.40;99.90
27848;DHT22;15212;48.830;8.730;2023-04-06T06:11:55;5.80;99.90
27848;DHT22;15212;48.830;8.730;2023-04-06T06:14:23;6.10;99.90
27848;DHT22;15212;48.830;8.730;2023-04-06T06:16:53;6.60;99.90
27848;DHT22;15212;48.830;8.730;2023-04-06T06:19:22;7.00;99.90
27848;DHT22;15212;48.830;8.730;2023-04-06T06:21:51;7.20;99.90
27848;DHT22;15212;48.830;8.730;2023-04-06T06:24:19;7.30;99.90
27848;DHT22;15212;48.830;8.730;2023-04-06T06:26:47;7.40;99.90
27848;DHT22;15212;48.830;8.730;2023-04-06T06:29:16;7.30;99.90
27848;DHT22;15212;48.830;8.730;2023-04-06T06:31:44;7.20;99.90
27848;DHT22;15212;48.830;8.730;2023-04-06T06:34:13;7.10;99.90
27848;DHT22;15212;48.830;8.730;2023-04-06T06:36:41;7.00;99.90
27848;DHT22;15212;48.830;8.730;2023-04-06T06:39:09;6.90;99.90
27848;DHT22;15212;48.830;8.730;2023-04-06T06:41:38;6.80;99.90
27848;DHT22;15212;48.830;8.730;2023-04-06T06:44:06;6.70;99.90
27848;DHT22;15212;48.830;8.730;2023-04-06T06:46:35;6.70;99.90
27848;DHT22;15212;48.830;8.730;2023-04-06T06:49:03;6.70;99.90
27848;DHT22;15212;48.830;8.730;2023-04-06T06:51:32;6.80;99.90
27848;DHT22;15212;48.830;8.730;2023-04-06T06:54:00;6.90;99.90
27848;DHT22;15212;48.830;8.730;2023-04-06T06:56:28;7.10;99.90
27848;DHT22;15212;48.830;8.730;2023-04-06T06:58:57;7.30;99.90
27848;DHT22;15212;48.830;8.730;2023-04-06T07:01:25;7.50;99.90
27848;DHT22;15212;48.830;8.730;2023-04-06T07:03:54;7.70;99.90
27848;DHT22;15212;48.830;8.730;2023-04-06T07:06:22;7.90;99.90
27848;DHT22;15212;48.830;8.730;2023-04-06T07:08:50;8.00;99.90
27848;DHT22;15212;48.830;8.730;2023-04-06T07:11:19;8.10;99.90
27848;DHT22;15212;48.830;8.730;2023-04-06T07:13:47;8.20;99.90
27848;DHT22;15212;48.830;8.730;2023-04-06T07:16:16;8.30;99.90
27848;DHT22;15212;48.830;8.730;2023-04-06T07:18:44;8.40;99.90
27848;DHT22;15212;48.830;8.730;2023-04-06T07:21:13;8.50;99.20
27848;DHT22;15212;48.830;8.730;2023-04-06T07:23:41;8.50;98.60
27848;DHT22;15212;48.830;8.730;2023-04-06T07:26:10;8.60;98.50
27848;DHT22;15212;48.830;8.730;2023-04-06T07:28:38;8.70;98.40
27848;DHT22;15212;48.830;8.730;2023-04-06T07:31:07;8.80;97.70
27848;DHT22;15212;48.830;8.730;2023-04-06T07:33:36;8.80;97.20
27848;DHT22;15212;48.830;8.730;2023-04-06T07:36:23;8.90;96.40
27848;DHT22;15212;48.830;8.730;2023-04-06T07:38:52;9.00;96.10
27848;DHT22;15212;48.830;8.730;2023-04-06T07:41:20;9.00;96.40
27848;DHT22;15212;48.830;8.730;2023-04-06T07:43:50;9.00;96.00
27848;DHT22;15212;48.830;8.730;2023-04-06T07:46:18;9.10;95.00
27848;DHT22;15212;48.830;8.730;2023-04-06T07:48:46;9.10;94.90
27848;DHT22;15212;48.830;8.730;2023-04-06T07:51:16;9.20;95.00
27848;DHT22;15212;48.830;8.730;2023-04-06T07:53:45;9.30;94.80
27848;DHT22;15212;48.830;8.730;2023-04-06T07:56:13;9.30;95.00
27848;DHT22;15212;48.830;8.730;2023-04-06T07:58:41;9.50;96.10
27848;DHT22;15212;48.830;8.730;2023-04-06T08:01:10;9.60;96.20
27848;DHT22;15212;48.830;8.730;2023-04-06T08:03:38;9.70;95.60
27848;DHT22;15212;48.830;8.730;2023-04-06T08:06:07;9.70;95.00
27848;DHT22;15212;48.830;8.730;2023-04-06T08:08:35;9.80;97.10
27848;DHT22;15212;48.830;8.730;2023-04-06T08:11:04;9.80;94.10
27848;DHT22;15212;48.830;8.730;2023-04-06T08:13:33;9.80;94.30
27848;DHT22;15212;48.830;8.730;2023-04-06T08:16:02;9.80;95.80
27848;DHT22;15212;48.830;8.730;2023-04-06T08:18:30;9.80;93.90
27848;DHT22;15212;48.830;8.730;2023-04-06T08:20:59;9.70;94.10
27848;DHT22;15212;48.830;8.730;2023-04-06T08:23:27;9.70;95.00
27848;DHT22;15212;48.830;8.730;2023-04-06T08:25:55;9.70;96.40
27848;DHT22;15212;48.830;8.730;2023-04-06T08:28:24;9.70;95.40
27848;DHT22;15212;48.830;8.730;2023-04-06T08:30:52;9.70;95.90
27848;DHT22;15212;48.830;8.730;2023-04-06T08:33:21;9.70;94.20
27848;DHT22;15212;48.830;8.730;2023-04-06T08:35:49;9.70;95.70
27848;DHT22;15212;48.830;8.730;2023-04-06T08:38:17;9.70;95.70
27848;DHT22;15212;48.830;8.730;2023-04-06T08:40:46;9.80;94.00
27848;DHT22;15212;48.830;8.730;2023-04-06T08:43:17;9.70;95.00
27848;DHT22;15212;48.830;8.730;2023-04-06T08:45:47;9.70;95.50
27848;DHT22;15212;48.830;8.730;2023-04-06T08:48:15;9.70;95.30
27848;DHT22;15212;48.830;8.730;2023-04-06T08:50:44;9.60;94.80
27848;DHT22;15212;48.830;8.730;2023-04-06T08:53:14;9.70;93.80
27848;DHT22;15212;48.830;8.730;2023-04-06T08:55:44;9.70;94.20
27848;DHT22;15212;48.830;8.730;2023-04-06T08:58:13;9.70;95.70
27848;DHT22;15212;48.830;8.730;2023-04-06T09:00:42;9.80;95.70
27848;DHT22;15212;48.830;8.730;2023-04-06T09:03:12;9.80;96.20
27848;DHT22;15212;48.830;8.730;2023-04-06T09:05:41;9.80;96.20
27848;DHT22;15212;48.830;8.730;2023-04-06T09:08:09;9.90;96.70
27848;DHT22;15212;48.830;8.730;2023-04-06T09:10:42;9.90;94.00
27848;DHT22;15212;48.830;8.730;2023-04-06T09:13:10;9.90;95.00
27848;DHT22;15212;48.830;8.730;2023-04-06T09:15:39;9.80;93.70
27848;DHT22;15212;48.830;8.730;2023-04-06T09:18:07;9.80;94.10
27848;DHT22;15212;48.830;8.730;2023-04-06T09:20:36;9.80;95.40
27848;DHT22;15212;48.830;8.730;2023-04-06T09:23:04;9.90;95.10
27848;DHT22;15212;48.830;8.730;2023-04-06T09:25:32;10.00;95.10
27848;DHT22;15212;48.830;8.730;2023-04-06T09:28:03;10.00;94.10
27848;DHT22;15212;48.830;8.730;2023-04-06T09:30:33;10.10;95.80
27848;DHT22;15212;48.830;8.730;2023-04-06T09:33:02;10.20;95.40
27848;DHT22;15212;48.830;8.730;2023-04-06T09:35:31;10.10;93.80
27848;DHT22;15212;48.830;8.730;2023-04-06T09:38:09;10.20;96.00
27848;DHT22;15212;48.830;8.730;2023-04-06T09:40:31;10.10;93.80
27848;DHT22;15212;48.830;8.730;2023-04-06T09:42:59;10.10;92.20
27848;DHT22;15212;48.830;8.730;2023-04-06T09:45:29;10.10;92.10
27848;DHT22;15212;48.830;8.730;2023-04-06T09:47:59;10.00;92.20
27848;DHT22;15212;48.830;8.730;2023-04-06T09:50:29;10.10;93.30
27848;DHT22;15212;48.830;8.730;2023-04-06T09:53:00;10.30;94.60
27848;DHT22;15212;48.830;8.730;2023-04-06T09:55:30;10.20;92.10
27848;DHT22;15212;48.830;8.730;2023-04-06T09:58:05;10.20;92.80
27848;DHT22;15212;48.830;8.730;2023-04-06T10:00:48;10.10;93.00
27848;DHT22;15212;48.830;8.730;2023-04-06T10:03:26;10.20;93.90
27848;DHT22;15212;48.830;8.730;2023-04-06T10:05:57;10.30;93.40
27848;DHT22;15212;48.830;8.730;2023-04-06T10:08:28;10.50;93.50
27848;DHT22;15212;48.830;8.730;2023-04-06T10:10:57;10.60;93.40
27848;DHT22;15212;48.830;8.730;2023-04-06T10:13:28;10.70;90.80
27848;DHT22;15212;48.830;8.730;2023-04-06T10:15:57;10.80;91.80
27848;DHT22;15212;48.830;8.730;2023-04-06T10:18:30;10.90;92.30
27848;DHT22;15212;48.830;8.730;2023-04-06T10:21:06;10.80;88.70
27848;DHT22;15212;48.830;8.730;2023-04-06T10:23:40;10.70;90.40
27848;DHT22;15212;48.830;8.730;2023-04-06T10:26:20;10.70;91.60
27848;DHT22;15212;48.830;8.730;2023-04-06T10:28:49;10.70;91.50
27848;DHT22;15212;48.830;8.730;2023-04-06T10:31:26;10.70;92.00
27848;DHT22;15212;48.830;8.730;2023-04-06T10:33:59;10.70;90.30
27848;DHT22;15212;48.830;8.730;2023-04-06T10:36:33;10.70;92.10
27848;DHT22;15212;48.830;8.730;2023-04-06T10:39:04;10.70;91.50
27848;DHT22;15212;48.830;8.730;2023-04-06T10:41:44;10.70;89.80
27848;DHT22;15212;48.830;8.730;2023-04-06T10:44:21;10.80;90.70
27848;DHT22;15212;48.830;8.730;2023-04-06T10:46:56;10.80;89.10
27848;DHT22;15212;48.830;8.730;2023-04-06T10:49:30;10.80;90.60
27848;DHT22;15212;48.830;8.730;2023-04-06T10:51:58;11.00;91.20
27848;DHT22;15212;48.830;8.730;2023-04-06T10:54:28;11.10;89.00
27848;DHT22;15212;48.830;8.730;2023-04-06T10:56:58;10.90;88.00
27848;DHT22;15212;48.830;8.730;2023-04-06T10:59:29;10.90;90.90
27848;DHT22;15212;48.830;8.730;2023-04-06T11:01:57;11.00;90.80
27848;DHT22;15212;48.830;8.730;2023-04-06T11:04:26;11.00;90.10
27848;DHT22;15212;48.830;8.730;2023-04-06T11:06:54;10.90;88.90
27848;DHT22;15212;48.830;8.730;2023-04-06T11:09:28;11.00;89.80
27848;DHT22;15212;48.830;8.730;2023-04-06T11:12:02;11.10;86.60
27848;DHT22;15212;48.830;8.730;2023-04-06T11:14:30;11.10;88.80
27848;DHT22;15212;48.830;8.730;2023-04-06T11:16:58;11.10;90.00
27848;DHT22;15212;48.830;8.730;2023-04-06T11:19:27;11.20;88.20
27848;DHT22;15212;48.830;8.730;2023-04-06T11:21:55;11.30;86.70
27848;DHT22;15212;48.830;8.730;2023-04-06T11:24:24;11.40;88.40
27848;DHT22;15212;48.830;8.730;2023-04-06T11:26:57;11.50;88.70
27848;DHT22;15212;48.830;8.730;2023-04-06T11:29:29;11.60;88.60
27848;DHT22;15212;48.830;8.730;2023-04-06T11:32:02;11.70;91.00
27848;DHT22;15212;48.830;8.730;2023-04-06T11:34:34;11.80;87.40
27848;DHT22;15212;48.830;8.730;2023-04-06T11:37:09;12.00;91.50
27848;DHT22;15212;48.830;8.730;2023-04-06T11:39:43;12.20;89.70
27848;DHT22;15212;48.830;8.730;2023-04-06T11:42:27;12.30;84.90
27848;DHT22;15212;48.830;8.730;2023-04-06T11:44:58;12.20;81.80
27848;DHT22;15212;48.830;8.730;2023-04-06T11:47:32;12.00;82.40
27848;DHT22;15212;48.830;8.730;2023-04-06T11:50:14;11.80;83.80
27848;DHT22;15212;48.830;8.730;2023-04-06T11:52:40;11.40;83.10
27848;DHT22;15212;48.830;8.730;2023-04-06T11:55:17;11.20;83.20
27848;DHT22;15212;48.830;8.730;2023-04-06T11:57:46;11.30;90.60
27848;DHT22;15212;48.830;8.730;2023-04-06T12:00:16;11.50;89.10
27848;DHT22;15212;48.830;8.730;2023-04-06T12:02:48;11.70;90.60
27848;DHT22;15212;48.830;8.730;2023-04-06T12:05:17;11.60;88.50
27848;DHT22;15212;48.830;8.730;2023-04-06T12:07:45;11.70;89.60
27848;DHT22;15212;48.830;8.730;2023-04-06T12:10:14;11.80;88.90
27848;DHT22;15212;48.830;8.730;2023-04-06T12:12:42;11.70;87.30
27848;DHT22;15212;48.830;8.730;2023-04-06T12:15:11;11.70;88.10
27848;DHT22;15212;48.830;8.730;2023-04-06T12:17:39;11.80;88.20
27848;DHT22;15212;48.830;8.730;2023-04-06T12:20:08;11.80;88.30
27848;DHT22;15212;48.830;8.730;2023-04-06T12:22:37;12.00;87.00
27848;DHT22;15212;48.830;8.730;2023-04-06T12:25:06;12.00;87.70
27848;DHT22;15212;48.830;8.730;2023-04-06T12:27:34;12.10;88.60
27848;DHT22;15212;48.830;8.730;2023-04-06T12:30:03;12.20;87.50
27848;DHT22;15212;48.830;8.730;2023-04-06T12:32:31;12.30;86.80
27848;DHT22;15212;48.830;8.730;2023-04-06T12:35:00;12.40;87.90
27848;DHT22;15212;48.830;8.730;2023-04-06T12:37:28;12.50;86.80
27848;DHT22;15212;48.830;8.730;2023-04-06T12:39:57;12.60;86.50
27848;DHT22;15212;48.830;8.730;2023-04-06T12:42:25;12.50;89.70
27848;DHT22;15212;48.830;8.730;2023-04-06T12:44:53;12.50;87.20
27848;DHT22;15212;48.830;8.730;2023-04-06T12:47:22;12.20;89.00
27848;DHT22;15212;48.830;8.730;2023-04-06T12:49:50;12.20;88.90
27848;DHT22;15212;48.830;8.730;2023-04-06T12:52:20;12.10;88.60
27848;DHT22;15212;48.830;8.730;2023-04-06T12:54:48;11.90;88.40
27848;DHT22;15212;48.830;8.730;2023-04-06T12:57:17;11.80;90.00
27848;DHT22;15212;48.830;8.730;2023-04-06T12:59:46;11.70;88.40
27848;DHT22;15212;48.830;8.730;2023-04-06T13:02:15;11.70;89.40
27848;DHT22;15212;48.830;8.730;2023-04-06T13:04:43;11.70;87.70
27848;DHT22;15212;48.830;8.730;2023-04-06T13:07:12;11.70;89.10
27848;DHT22;15212;48.830;8.730;2023-04-06T13:09:40;11.80;87.30
27848;DHT22;15212;48.830;8.730;2023-04-06T13:12:09;11.90;86.90
27848;DHT22;15212;48.830;8.730;2023-04-06T13:14:37;12.00;88.50
27848;DHT22;15212;48.830;8.730;2023-04-06T13:17:06;12.10;87.40
27848;DHT22;15212;48.830;8.730;2023-04-06T13:19:34;12.20;87.60
27848;DHT22;15212;48.830;8.730;2023-04-06T13:22:02;12.20;88.40
27848;DHT22;15212;48.830;8.730;2023-04-06T13:24:31;12.30;90.70
27848;DHT22;15212;48.830;8.730;2023-04-06T13:27:00;12.40;91.10
27848;DHT22;15212;48.830;8.730;2023-04-06T13:29:29;12.50;88.30
27848;DHT22;15212;48.830;8.730;2023-04-06T13:31:57;12.50;88.20
27848;DHT22;15212;48.830;8.730;2023-04-06T13:34:25;12.40;88.00
27848;DHT22;15212;48.830;8.730;2023-04-06T13:36:54;12.40;87.40
27848;DHT22;15212;48.830;8.730;2023-04-06T13:39:22;12.50;88.80
27848;DHT22;15212;48.830;8.730;2023-04-06T13:41:52;12.50;89.60
27848;DHT22;15212;48.830;8.730;2023-04-06T13:44:22;12.40;88.40
27848;DHT22;15212;48.830;8.730;2023-04-06T13:46:51;12.30;86.60
27848;DHT22;15212;48.830;8.730;2023-04-06T13:49:20;12.10;89.00
27848;DHT22;15212;48.830;8.730;2023-04-06T13:51:48;12.20;90.80
27848;DHT22;15212;48.830;8.730;2023-04-06T13:54:17;12.30;90.60
27848;DHT22;15212;48.830;8.730;2023-04-06T13:56:45;12.30;90.40
27848;DHT22;15212;48.830;8.730;2023-04-06T13:59:13;12.20;90.80
27848;DHT22;15212;48.830;8.730;2023-04-06T14:01:42;12.10;90.40
27848;DHT22;15212;48.830;8.730;2023-04-06T14:04:10;12.00;88.10
27848;DHT22;15212;48.830;8.730;2023-04-06T14:06:38;11.90;89.90
27848;DHT22;15212;48.830;8.730;2023-04-06T14:09:07;11.90;90.10
27848;DHT22;15212;48.830;8.730;2023-04-06T14:11:35;11.90;90.50
27848;DHT22;15212;48.830;8.730;2023-04-06T14:14:04;11.90;90.50
27848;DHT22;15212;48.830;8.730;2023-04-06T14:16:33;11.80;90.00
27848;DHT22;15212;48.830;8.730;2023-04-06T14:19:01;11.70;90.30
27848;DHT22;15212;48.830;8.730;2023-04-06T14:21:30;11.70;90.40
27848;DHT22;15212;48.830;8.730;2023-04-06T14:23:59;11.60;90.30
27848;DHT22;15212;48.830;8.730;2023-04-06T14:26:28;11.50;90.80
27848;DHT22;15212;48.830;8.730;2023-04-06T14:28:56;11.50;90.40
27848;DHT22;15212;48.830;8.730;2023-04-06T14:31:26;11.50;90.90
27848;DHT22;15212;48.830;8.730;2023-04-06T14:33:55;11.50;90.30
27848;DHT22;15212;48.830;8.730;2023-04-06T14:36:23;11.40;90.10
27848;DHT22;15212;48.830;8.730;2023-04-06T14:38:53;11.40;90.50
27848;DHT22;15212;48.830;8.730;2023-04-06T14:41:24;11.40;90.30
27848;DHT22;15212;48.830;8.730;2023-04-06T14:43:53;11.40;90.00
27848;DHT22;15212;48.830;8.730;2023-04-06T14:46:21;11.40;89.70
27848;DHT22;15212;48.830;8.730;2023-04-06T14:48:50;11.40;88.10
27848;DHT22;15212;48.830;8.730;2023-04-06T14:51:18;11.40;89.00
27848;DHT22;15212;48.830;8.730;2023-04-06T14:53:47;11.40;87.30
27848;DHT22;15212;48.830;8.730;2023-04-06T14:56:23;11.40;86.70
27848;DHT22;15212;48.830;8.730;2023-04-06T14:58:52;11.40;86.50
27848;DHT22;15212;48.830;8.730;2023-04-06T15:01:21;11.40;86.00
27848;DHT22;15212;48.830;8.730;2023-04-06T15:03:50;11.40;85.70
27848;DHT22;15212;48.830;8.730;2023-04-06T15:06:18;11.40;85.30
27848;DHT22;15212;48.830;8.730;2023-04-06T15:08:48;11.40;87.30
27848;DHT22;15212;48.830;8.730;2023-04-06T15:11:17;11.40;86.90
27848;DHT22;15212;48.830;8.730;2023-04-06T15:13:45;11.50;86.30
27848;DHT22;15212;48.830;8.730;2023-04-06T15:16:13;11.50;84.10
27848;DHT22;15212;48.830;8.730;2023-04-06T15:18:42;11.50;82.70
27848;DHT22;15212;48.830;8.730;2023-04-06T15:21:10;11.60;81.90
27848;DHT22;15212;48.830;8.730;2023-04-06T15:23:39;11.60;82.60
27848;DHT22;15212;48.830;8.730;2023-04-06T15:26:07;11.70;80.70
27848;DHT22;15212;48.830;8.730;2023-04-06T15:28:36;11.70;81.20
27848;DHT22;15212;48.830;8.730;2023-04-06T15:31:28;11.70;81.30
27848;DHT22;15212;48.830;8.730;2023-04-06T15:33:42;11.60;82.10
27848;DHT22;15212;48.830;8.730;2023-04-06T15:36:22;11.60;82.80
27848;DHT22;15212;48.830;8.730;2023-04-06T15:38:58;11.60;82.80
27848;DHT22;15212;48.830;8.730;2023-04-06T15:41:27;11.50;81.60
27848;DHT22;15212;48.830;8.730;2023-04-06T15:43:55;11.40;81.70
27848;DHT22;15212;48.830;8.730;2023-04-06T15:46:24;11.40;80.50
27848;DHT22;15212;48.830;8.730;2023-04-06T15:48:54;11.40;81.70
27848;DHT22;15212;48.830;8.730;2023-04-06T15:51:22;11.30;79.50